sensor_id;sensor_type;location;lat;lon;timestamp;temperature;humidity
1355;DHT22;671;48.972;9.276;2023-02-02T00:01:58;7.00;99.90
1355;DHT22;671;48.972;9.276;2023-02-02T00:04:30;7.00;99.90
1355;DHT22;671;48.972;9.276;2023-02-02T00:06:57;7.00;99.90
1355;DHT22;671;48.972;9.276;2023-02-02T00:09:28;7.00;1.00
1355;DHT22;671;48.972;9.276;2023-02-02T00:11:56;7.00;99.90
1355;DHT22;671;48.972;9.276;2023-02-02T00:14:23;7.00;1.00
1355;DHT22;671;48.972;9.276;2023-02-02T00:16:52;7.00;99.90
1355;DHT22;671;48.972;9.276;2023-02-02T00:19:27;7.00;1.00
1355;DHT22;671;48.972;9.276;2023-02-02T00:21:55;7.00;1.00
1355;DHT22;671;48.972;9.276;2023-02-02T00:24:22;7.00;1.00
1355;DHT22;671;48.972;9.276;2023-02-02T00:26:52;7.00;1.00
1355;DHT22;671;48.972;9.276;2023-02-02T00:29:27;7.00;1.00
1355;DHT22;671;48.972;9.276;2023-02-02T00:31:54;7.00;1.00
1355;DHT22;671;48.972;9.276;2023-02-02T00:34:21;7.00;1.00
1355;DHT22;671;48.972;9.276;2023-02-02T00:36:48;7.00;1.00
1355;DHT22;671;48.972;9.276;2023-02-02T00:39:21;7.00;1.00
1355;DHT22;671;48.972;9.276;2023-02-02T00:41:48;7.00;1.00
1355;DHT22;671;48.972;9.276;2023-02-02T00:44:14;7.00;1.00
1355;DHT22;671;48.972;9.276;2023-02-02T00:47:00;7.00;1.00
1355;DHT22;671;48.972;9.276;2023-02-02T00:49:26;7.00;1.00
1355;DHT22;671;48.972;9.276;2023-02-02T00:51:52;7.00;1.00
1355;DHT22;671;48.972;9.276;2023-02-02T00:54:19;7.00;1.00
1355;DHT22;671;48.972;9.276;2023-02-02T00:56:46;7.00;1.00
1355;DHT22;671;48.972;9.276;2023-02-02T00:59:12;7.00;1.00
1355;DHT22;671;48.972;9.276;2023-02-02T01:01:39;7.00;1.00
1355;DHT22;671;48.972;9.276;2023-02-02T01:04:05;7.00;1.00
1355;DHT22;671;48.972;9.276;2023-02-02T01:06:32;7.00;1.00
1355;DHT22;671;48.972;9.276;2023-02-02T01:08:58;7.10;1.00
1355;DHT22;671;48.972;9.276;2023-02-02T01:11:25;7.10;1.00
1355;DHT22;671;48.972;9.276;2023-02-02T01:13:51;7.10;1.00
1355;DHT22;671;48.972;9.276;2023-02-02T01:16:17;7.10;1.00
1355;DHT22;671;48.972;9.276;2023-02-02T01:18:48;7.00;1.00
1355;DHT22;671;48.972;9.276;2023-02-02T01:21:14;7.00;1.00
1355;DHT22;671;48.972;9.276;2023-02-02T01:23:41;7.00;1.00
1355;DHT22;671;48.972;9.276;2023-02-02T01:26:09;7.00;93.60
1355;DHT22;671;48.972;9.276;2023-02-02T01:28:36;7.00;95.20
1355;DHT22;671;48.972;9.276;2023-02-02T01:31:16;7.00;99.90
1355;DHT22;671;48.972;9.276;2023-02-02T01:33:44;7.00;99.90
1355;DHT22;671;48.972;9.276;2023-02-02T01:36:13;7.00;99.90
1355;DHT22;671;48.972;9.276;2023-02-02T01:38:40;7.10;99.90
1355;DHT22;671;48.972;9.276;2023-02-02T01:41:11;7.10;99.90
1355;DHT22;671;48.972;9.276;2023-02-02T01:46:14;7.10;99.90
1355;DHT22;671;48.972;9.276;2023-02-02T01:48:45;7.00;99.90
1355;DHT22;671;48.972;9.276;2023-02-02T01:51:16;7.10;99.90
1355;DHT22;671;48.972;9.276;2023-02-02T01:53:45;7.00;99.90
1355;DHT22;671;48.972;9.276;2023-02-02T01:56:16;7.00;99.90
1355;DHT22;671;48.972;9.276;2023-02-02T01:58:44;7.10;99.90
1355;DHT22;671;48.972;9.276;2023-02-02T02:01:12;7.00;99.90
1355;DHT22;671;48.972;9.276;2023-02-02T02:03:39;7.00;99.90
1355;DHT22;671;48.972;9.276;2023-02-02T02:06:12;7.00;1.00
1355;DHT22;671;48.972;9.276;2023-02-02T02:08:54;7.00;1.00
1355;DHT22;671;48.972;9.276;2023-02-02T02:11:23;6.90;99.90
1355;DHT22;671;48.972;9.276;2023-02-02T02:13:51;7.00;99.90
1355;DHT22;671;48.972;9.276;2023-02-02T02:23:06;7.00;99.90
1355;DHT22;671;48.972;9.276;2023-02-02T02:32:00;7.00;1.00
1355;DHT22;671;48.972;9.276;2023-02-02T02:37:17;6.90;1.00
1355;DHT22;671;48.972;9.276;2023-02-02T02:40:01;6.90;1.00
1355;DHT22;671;48.972;9.276;2023-02-02T02:42:34;6.90;1.00
1355;DHT22;671;48.972;9.276;2023-02-02T02:45:03;6.90;1.00
1355;DHT22;671;48.972;9.276;2023-02-02T02:47:30;6.90;1.00
1355;DHT22;671;48.972;9.276;2023-02-02T02:49:57;6.90;1.00
1355;DHT22;671;48.972;9.276;2023-02-02T02:52:23;6.90;1.00
1355;DHT22;671;48.972;9.276;2023-02-02T02:54:54;6.90;1.00
1355;DHT22;671;48.972;9.276;2023-02-02T03:03:00;6.90;1.00
1355;DHT22;671;48.972;9.276;2023-02-02T03:10:37;6.80;1.00
1355;DHT22;671;48.972;9.276;2023-02-02T03:13:09;6.80;1.00
1355;DHT22;671;48.972;9.276;2023-02-02T03:15:40;6.80;1.00
1355;DHT22;671;48.972;9.276;2023-02-02T03:18:06;6.80;1.00
1355;DHT22;671;48.972;9.276;2023-02-02T03:20:33;6.80;1.00
1355;DHT22;671;48.972;9.276;2023-02-02T03:23:00;6.80;1.00
1355;DHT22;671;48.972;9.276;2023-02-02T03:25:26;6.80;1.00
1355;DHT22;671;48.972;9.276;2023-02-02T03:27:53;6.80;1.00
1355;DHT22;671;48.972;9.276;2023-02-02T03:30:21;6.80;1.00
1355;DHT22;671;48.972;9.276;2023-02-02T03:32:48;6.90;1.00
1355;DHT22;671;48.972;9.276;2023-02-02T03:35:15;6.80;1.00
1355;DHT22;671;48.972;9.276;2023-02-02T03:37:42;6.90;1.00
1355;DHT22;671;48.972;9.276;2023-02-02T03:40:09;6.80;1.00
1355;DHT22;671;48.972;9.276;2023-02-02T03:42:35;6.90;1.00
1355;DHT22;671;48.972;9.276;2023-02-02T03:45:02;6.90;1.00
1355;DHT22;671;48.972;9.276;2023-02-02T03:47:29;6.90;1.00
1355;DHT22;671;48.972;9.276;2023-02-02T03:49:56;6.90;1.00
1355;DHT22;671;48.972;9.276;2023-02-02T03:52:23;6.90;1.00
1355;DHT22;671;48.972;9.276;2023-02-02T03:54:50;6.90;1.00
1355;DHT22;671;48.972;9.276;2023-02-02T03:57:17;6.90;1.00
1355;DHT22;671;48.972;9.276;2023-02-02T03:59:43;7.00;1.00
1355;DHT22;671;48.972;9.276;2023-02-02T04:02:10;6.90;1.00
1355;DHT22;671;48.972;9.276;2023-02-02T04:04:36;6.90;1.00
1355;DHT22;671;48.972;9.276;2023-02-02T04:07:02;6.90;1.00
1355;DHT22;671;48.972;9.276;2023-02-02T04:09:29;6.90;1.00
1355;DHT22;671;48.972;9.276;2023-02-02T04:11:55;7.00;1.00
1355;DHT22;671;48.972;9.276;2023-02-02T04:14:22;7.00;1.00
1355;DHT22;671;48.972;9.276;2023-02-02T04:16:48;6.90;1.00
1355;DHT22;671;48.972;9.276;2023-02-02T04:19:14;6.90;1.00
1355;DHT22;671;48.972;9.276;2023-02-02T04:21:42;7.00;1.00
1355;DHT22;671;48.972;9.276;2023-02-02T04:24:10;7.00;1.00
1355;DHT22;671;48.972;9.276;2023-02-02T04:26:36;7.00;1.00
1355;DHT22;671;48.972;9.276;2023-02-02T04:29:03;7.00;1.00
1355;DHT22;671;48.972;9.276;2023-02-02T04:31:29;7.00;1.00
1355;DHT22;671;48.972;9.276;2023-02-02T04:33:57;7.00;1.00
1355;DHT22;671;48.972;9.276;2023-02-02T04:36:24;7.00;1.00
1355;DHT22;671;48.972;9.276;2023-02-02T04:38:51;7.00;1.00
1355;DHT22;671;48.972;9.276;2023-02-02T04:41:18;7.10;1.00
1355;DHT22;671;48.972;9.276;2023-02-02T04:43:45;7.10;1.00
1355;DHT22;671;48.972;9.276;2023-02-02T04:46:12;7.10;1.00
1355;DHT22;671;48.972;9.276;2023-02-02T04:48:39;7.10;1.00
1355;DHT22;671;48.972;9.276;2023-02-02T04:51:11;7.10;1.00
1355;DHT22;671;48.972;9.276;2023-02-02T04:53:39;7.10;1.00
1355;DHT22;671;48.972;9.276;2023-02-02T04:56:09;7.10;1.00
1355;DHT22;671;48.972;9.276;2023-02-02T04:58:35;7.10;1.00
1355;DHT22;671;48.972;9.276;2023-02-02T05:01:11;7.20;1.00
1355;DHT22;671;48.972;9.276;2023-02-02T05:03:37;7.10;1.00
1355;DHT22;671;48.972;9.276;2023-02-02T05:06:05;7.10;1.00
1355;DHT22;671;48.972;9.276;2023-02-02T05:08:31;7.20;1.00
1355;DHT22;671;48.972;9.276;2023-02-02T05:10:58;7.20;1.00
1355;DHT22;671;48.972;9.276;2023-02-02T05:13:24;7.20;1.00
1355;DHT22;671;48.972;9.276;2023-02-02T05:15:52;7.20;1.00
1355;DHT22;671;48.972;9.276;2023-02-02T05:18:19;7.20;1.00
1355;DHT22;671;48.972;9.276;2023-02-02T05:20:45;7.20;1.00
1355;DHT22;671;48.972;9.276;2023-02-02T05:23:11;7.20;1.00
1355;DHT22;671;48.972;9.276;2023-02-02T05:25:38;7.20;1.00
1355;DHT22;671;48.972;9.276;2023-02-02T05:28:04;7.20;1.00
1355;DHT22;671;48.972;9.276;2023-02-02T05:30:31;7.20;1.00
1355;DHT22;671;48.972;9.276;2023-02-02T05:32:57;7.20;1.00
1355;DHT22;671;48.972;9.276;2023-02-02T05:35:24;7.20;1.00
1355;DHT22;671;48.972;9.276;2023-02-02T05:37:50;7.20;1.00
1355;DHT22;671;48.972;9.276;2023-02-02T05:40:16;7.20;1.00
1355;DHT22;671;48.972;9.276;2023-02-02T05:42:47;7.20;1.00
1355;DHT22;671;48.972;9.276;2023-02-02T05:45:13;7.20;1.00
1355;DHT22;671;48.972;9.276;2023-02-02T05:47:40;7.20;1.00
1355;DHT22;671;48.972;9.276;2023-02-02T05:50:06;7.20;1.00
1355;DHT22;671;48.972;9.276;2023-02-02T05:52:34;7.20;1.00
1355;DHT22;671;48.972;9.276;2023-02-02T05:55:02;7.20;1.00
1355;DHT22;671;48.972;9.276;2023-02-02T05:57:29;7.20;1.00
1355;DHT22;671;48.972;9.276;2023-02-02T05:59:55;7.30;1.00
1355;DHT22;671;48.972;9.276;2023-02-02T06:02:21;7.20;1.00
1355;DHT22;671;48.972;9.276;2023-02-02T06:04:48;7.20;1.00
1355;DHT22;671;48.972;9.276;2023-02-02T06:07:14;7.20;1.00
1355;DHT22;671;48.972;9.276;2023-02-02T06:09:41;7.30;1.00
1355;DHT22;671;48.972;9.276;2023-02-02T06:12:07;7.20;1.00
1355;DHT22;671;48.972;9.276;2023-02-02T06:14:35;7.20;1.00
1355;DHT22;671;48.972;9.276;2023-02-02T06:17:01;7.30;1.00
1355;DHT22;671;48.972;9.276;2023-02-02T06:19:27;7.20;1.00
1355;DHT22;671;48.972;9.276;2023-02-02T06:21:54;7.30;1.00
1355;DHT22;671;48.972;9.276;2023-02-02T06:24:20;7.20;1.00
1355;DHT22;671;48.972;9.276;2023-02-02T06:26:47;7.20;1.00
1355;DHT22;671;48.972;9.276;2023-02-02T06:29:13;7.30;1.00
1355;DHT22;671;48.972;9.276;2023-02-02T06:31:40;7.20;1.00
1355;DHT22;671;48.972;9.276;2023-02-02T06:34:09;7.30;1.00
1355;DHT22;671;48.972;9.276;2023-02-02T06:36:36;7.30;1.00
1355;DHT22;671;48.972;9.276;2023-02-02T06:39:02;7.30;1.00
1355;DHT22;671;48.972;9.276;2023-02-02T06:41:31;7.30;1.00
1355;DHT22;671;48.972;9.276;2023-02-02T06:43:57;7.30;1.00
1355;DHT22;671;48.972;9.276;2023-02-02T06:46:24;7.30;1.00
1355;DHT22;671;48.972;9.276;2023-02-02T06:48:50;7.30;1.00
1355;DHT22;671;48.972;9.276;2023-02-02T06:51:17;7.30;1.00
1355;DHT22;671;48.972;9.276;2023-02-02T06:53:46;7.30;1.00
1355;DHT22;671;48.972;9.276;2023-02-02T06:56:14;7.30;1.00
1355;DHT22;671;48.972;9.276;2023-02-02T06:58:41;7.30;1.00
1355;DHT22;671;48.972;9.276;2023-02-02T07:01:10;7.30;1.00
1355;DHT22;671;48.972;9.276;2023-02-02T07:03:37;7.30;1.00
1355;DHT22;671;48.972;9.276;2023-02-02T07:06:17;7.30;1.00
1355;DHT22;671;48.972;9.276;2023-02-02T07:08:44;7.30;1.00
1355;DHT22;671;48.972;9.276;2023-02-02T07:11:11;7.30;1.00
1355;DHT22;671;48.972;9.276;2023-02-02T07:13:37;7.30;1.00
1355;DHT22;671;48.972;9.276;2023-02-02T07:16:04;7.30;1.00
1355;DHT22;671;48.972;9.276;2023-02-02T07:18:31;7.40;1.00
1355;DHT22;671;48.972;9.276;2023-02-02T07:20:59;7.40;1.00
1355;DHT22;671;48.972;9.276;2023-02-02T07:23:29;7.40;1.00
1355;DHT22;671;48.972;9.276;2023-02-02T07:26:03;7.30;1.00
1355;DHT22;671;48.972;9.276;2023-02-02T07:28:30;7.40;1.00
1355;DHT22;671;48.972;9.276;2023-02-02T07:30:56;7.40;1.00
1355;DHT22;671;48.972;9.276;2023-02-02T07:33:23;7.40;1.00
1355;DHT22;671;48.972;9.276;2023-02-02T07:35:50;7.40;1.00
1355;DHT22;671;48.972;9.276;2023-02-02T07:38:16;7.40;1.00
1355;DHT22;671;48.972;9.276;2023-02-02T07:40:43;7.40;1.00
1355;DHT22;671;48.972;9.276;2023-02-02T07:43:10;7.40;1.00
1355;DHT22;671;48.972;9.276;2023-02-02T07:45:36;7.40;1.00
1355;DHT22;671;48.972;9.276;2023-02-02T07:48:03;7.40;1.00
1355;DHT22;671;48.972;9.276;2023-02-02T07:50:30;7.40;1.00
1355;DHT22;671;48.972;9.276;2023-02-02T07:52:58;7.40;99.90
1355;DHT22;671;48.972;9.276;2023-02-02T07:55:25;7.40;1.00
1355;DHT22;671;48.972;9.276;2023-02-02T07:57:51;7.50;99.90
1355;DHT22;671;48.972;9.276;2023-02-02T08:00:20;7.50;99.90
1355;DHT22;671;48.972;9.276;2023-02-02T08:02:48;7.50;99.90
1355;DHT22;671;48.972;9.276;2023-02-02T08:05:14;7.50;1.00
1355;DHT22;671;48.972;9.276;2023-02-02T08:07:41;7.50;1.00
1355;DHT22;671;48.972;9.276;2023-02-02T08:10:09;7.50;99.90
1355;DHT22;671;48.972;9.276;2023-02-02T08:12:35;7.60;99.90
1355;DHT22;671;48.972;9.276;2023-02-02T08:15:02;7.60;99.90
1355;DHT22;671;48.972;9.276;2023-02-02T08:17:28;7.60;99.90
1355;DHT22;671;48.972;9.276;2023-02-02T08:19:55;7.60;99.90
1355;DHT22;671;48.972;9.276;2023-02-02T08:22:21;7.60;99.90
1355;DHT22;671;48.972;9.276;2023-02-02T08:24:47;7.60;99.90
1355;DHT22;671;48.972;9.276;2023-02-02T08:27:15;7.60;99.90
1355;DHT22;671;48.972;9.276;2023-02-02T08:29:42;7.60;99.90
1355;DHT22;671;48.972;9.276;2023-02-02T08:32:08;7.60;99.90
1355;DHT22;671;48.972;9.276;2023-02-02T08:34:35;7.60;99.90
1355;DHT22;671;48.972;9.276;2023-02-02T08:37:02;7.60;99.90
1355;DHT22;671;48.972;9.276;2023-02-02T08:39:29;7.60;99.90
1355;DHT22;671;48.972;9.276;2023-02-02T08:41:56;7.60;99.90
1355;DHT22;671;48.972;9.276;2023-02-02T08:44:23;7.60;99.90
1355;DHT22;671;48.972;9.276;2023-02-02T08:46:50;7.60;99.90
1355;DHT22;671;48.972;9.276;2023-02-02T08:49:16;7.60;99.90
1355;DHT22;671;48.972;9.276;2023-02-02T08:51:43;7.70;99.90
1355;DHT22;671;48.972;9.276;2023-02-02T08:54:09;7.70;99.90
1355;DHT22;671;48.972;9.276;2023-02-02T08:56:36;7.80;99.90
1355;DHT22;671;48.972;9.276;2023-02-02T08:59:02;7.80;99.90
1355;DHT22;671;48.972;9.276;2023-02-02T09:01:31;7.80;99.90
1355;DHT22;671;48.972;9.276;2023-02-02T09:03:59;7.80;99.90
1355;DHT22;671;48.972;9.276;2023-02-02T09:06:44;7.80;99.90
1355;DHT22;671;48.972;9.276;2023-02-02T09:09:14;7.80;99.90
1355;DHT22;671;48.972;9.276;2023-02-02T09:11:41;7.80;99.90
1355;DHT22;671;48.972;9.276;2023-02-02T09:14:10;7.80;99.90
1355;DHT22;671;48.972;9.276;2023-02-02T09:16:37;7.80;99.90
1355;DHT22;671;48.972;9.276;2023-02-02T09:19:04;7.80;99.90
1355;DHT22;671;48.972;9.276;2023-02-02T09:21:31;7.80;99.90
1355;DHT22;671;48.972;9.276;2023-02-02T09:24:12;7.90;99.90
1355;DHT22;671;48.972;9.276;2023-02-02T09:26:39;7.90;99.90
1355;DHT22;671;48.972;9.276;2023-02-02T09:29:09;7.90;99.90
1355;DHT22;671;48.972;9.276;2023-02-02T09:31:36;7.90;99.90
1355;DHT22;671;48.972;9.276;2023-02-02T09:34:11;8.00;99.90
1355;DHT22;671;48.972;9.276;2023-02-02T09:36:38;8.00;99.90
1355;DHT22;671;48.972;9.276;2023-02-02T09:39:06;8.00;99.90
1355;DHT22;671;48.972;9.276;2023-02-02T09:46:41;8.10;99.90
1355;DHT22;671;48.972;9.276;2023-02-02T09:49:14;8.10;99.90
1355;DHT22;671;48.972;9.276;2023-02-02T09:51:49;8.10;99.90
1355;DHT22;671;48.972;9.276;2023-02-02T09:54:31;8.00;99.90
1355;DHT22;671;48.972;9.276;2023-02-02T09:56:59;8.00;99.90
1355;DHT22;671;48.972;9.276;2023-02-02T09:59:32;8.00;99.90
1355;DHT22;671;48.972;9.276;2023-02-02T10:02:12;8.10;99.90
1355;DHT22;671;48.972;9.276;2023-02-02T10:04:41;8.10;99.90
1355;DHT22;671;48.972;9.276;2023-02-02T10:07:16;8.00;99.90
1355;DHT22;671;48.972;9.276;2023-02-02T10:09:57;8.10;99.90
1355;DHT22;671;48.972;9.276;2023-02-02T10:12:44;8.10;99.90
1355;DHT22;671;48.972;9.276;2023-02-02T10:18:09;8.10;99.90
1355;DHT22;671;48.972;9.276;2023-02-02T10:20:46;8.10;99.90
1355;DHT22;671;48.972;9.276;2023-02-02T10:23:37;8.10;99.90
1355;DHT22;671;48.972;9.276;2023-02-02T10:26:19;8.20;99.90
1355;DHT22;671;48.972;9.276;2023-02-02T10:34:40;8.40;99.90
1355;DHT22;671;48.972;9.276;2023-02-02T10:37:19;8.50;99.90
1355;DHT22;671;48.972;9.276;2023-02-02T10:45:39;8.60;1.00
1355;DHT22;671;48.972;9.276;2023-02-02T10:48:14;8.70;99.90
1355;DHT22;671;48.972;9.276;2023-02-02T10:50:53;8.70;1.00
1355;DHT22;671;48.972;9.276;2023-02-02T10:53:21;8.70;99.90
1355;DHT22;671;48.972;9.276;2023-02-02T10:56:05;8.60;99.90
1355;DHT22;671;48.972;9.276;2023-02-02T10:58:47;8.60;99.90
1355;DHT22;671;48.972;9.276;2023-02-02T11:01:15;8.60;1.00
1355;DHT22;671;48.972;9.276;2023-02-02T11:03:43;8.50;1.00
1355;DHT22;671;48.972;9.276;2023-02-02T11:06:11;8.50;1.00
1355;DHT22;671;48.972;9.276;2023-02-02T11:08:57;8.40;1.00
1355;DHT22;671;48.972;9.276;2023-02-02T11:11:40;8.40;1.00
1355;DHT22;671;48.972;9.276;2023-02-02T11:16:39;8.30;99.90
1355;DHT22;671;48.972;9.276;2023-02-02T11:21:50;8.30;1.00
1355;DHT22;671;48.972;9.276;2023-02-02T11:24:40;8.30;99.90
1355;DHT22;671;48.972;9.276;2023-02-02T11:27:26;8.30;99.90
1355;DHT22;671;48.972;9.276;2023-02-02T11:29:57;8.30;1.00
1355;DHT22;671;48.972;9.276;2023-02-02T11:35:17;8.30;1.00
1355;DHT22;671;48.972;9.276;2023-02-02T11:42:49;8.30;1.00
1355;DHT22;671;48.972;9.276;2023-02-02T11:45:21;8.30;1.00
1355;DHT22;671;48.972;9.276;2023-02-02T11:47:51;8.30;1.00
1355;DHT22;671;48.972;9.276;2023-02-02T11:50:25;8.30;1.00
1355;DHT22;671;48.972;9.276;2023-02-02T11:52:52;8.30;1.00
1355;DHT22;671;48.972;9.276;2023-02-02T11:55:27;8.30;1.00
1355;DHT22;671;48.972;9.276;2023-02-02T12:00:46;8.30;99.90
1355;DHT22;671;48.972;9.276;2023-02-02T12:03:25;8.30;1.00
1355;DHT22;671;48.972;9.276;2023-02-02T12:05:52;8.20;1.00
1355;DHT22;671;48.972;9.276;2023-02-02T12:08:19;8.30;1.00
1355;DHT22;671;48.972;9.276;2023-02-02T12:22:18;8.20;1.00
1355;DHT22;671;48.972;9.276;2023-02-02T12:30:49;8.10;1.00
1355;DHT22;671;48.972;9.276;2023-02-02T13:05:52;7.90;1.00
1355;DHT22;671;48.972;9.276;2023-02-02T13:08:30;8.00;1.00
1355;DHT22;671;48.972;9.276;2023-02-02T13:11:04;7.90;1.00
1355;DHT22;671;48.972;9.276;2023-02-02T13:13:38;7.90;1.00
1355;DHT22;671;48.972;9.276;2023-02-02T13:16:08;7.90;1.00
1355;DHT22;671;48.972;9.276;2023-02-02T13:18:43;7.90;1.00
1355;DHT22;671;48.972;9.276;2023-02-02T13:21:14;8.00;1.00
1355;DHT22;671;48.972;9.276;2023-02-02T13:23:54;8.00;1.00
1355;DHT22;671;48.972;9.276;2023-02-02T13:26:25;8.10;1.00
1355;DHT22;671;48.972;9.276;2023-02-02T13:28:57;8.20;1.00
1355;DHT22;671;48.972;9.276;2023-02-02T13:31:54;8.20;1.00
1355;DHT22;671;48.972;9.276;2023-02-02T13:34:39;8.20;1.00
1355;DHT22;671;48.972;9.276;2023-02-02T13:42:46;8.30;1.00
1355;DHT22;671;48.972;9.276;2023-02-02T14:01:46;8.50;99.90
1355;DHT22;671;48.972;9.276;2023-02-02T14:04:28;8.60;99.90
1355;DHT22;671;48.972;9.276;2023-02-02T14:06:59;8.50;99.90
1355;DHT22;671;48.972;9.276;2023-02-02T14:09:28;8.60;99.90
1355;DHT22;671;48.972;9.276;2023-02-02T14:12:01;8.50;99.90
1355;DHT22;671;48.972;9.276;2023-02-02T14:14:29;8.50;99.90
1355;DHT22;671;48.972;9.276;2023-02-02T14:51:19;8.30;99.90
1355;DHT22;671;48.972;9.276;2023-02-02T14:53:55;8.30;99.90
1355;DHT22;671;48.972;9.276;2023-02-02T14:56:47;8.30;95.40
1355;DHT22;671;48.972;9.276;2023-02-02T14:59:28;8.20;91.60
1355;DHT22;671;48.972;9.276;2023-02-02T15:02:12;8.30;95.70
1355;DHT22;671;48.972;9.276;2023-02-02T15:04:40;8.30;95.60
1355;DHT22;671;48.972;9.276;2023-02-02T15:09:49;8.20;1.00
1355;DHT22;671;48.972;9.276;2023-02-02T15:12:17;8.30;1.00
1355;DHT22;671;48.972;9.276;2023-02-02T15:23:35;8.30;1.00
1355;DHT22;671;48.972;9.276;2023-02-02T15:26:26;8.30;1.00
1355;DHT22;671;48.972;9.276;2023-02-02T15:29:02;8.30;1.00
1355;DHT22;671;48.972;9.276;2023-02-02T15:31:35;8.30;1.00
1355;DHT22;671;48.972;9.276;2023-02-02T15:34:21;8.20;1.00
1355;DHT22;671;48.972;9.276;2023-02-02T15:36:56;8.20;1.00
1355;DHT22;671;48.972;9.276;2023-02-02T15:39:30;8.20;1.00
1355;DHT22;671;48.972;9.276;2023-02-02T15:42:02;8.20;1.00
1355;DHT22;671;48.972;9.276;2023-02-02T15:44:48;8.20;1.00
1355;DHT22;671;48.972;9.276;2023-02-02T15:47:18;8.20;1.00
1355;DHT22;671;48.972;9.276;2023-02-02T15:49:45;8.20;1.00
1355;DHT22;671;48.972;9.276;2023-02-02T15:52:21;8.20;1.00
1355;DHT22;671;48.972;9.276;2023-02-02T15:54:53;8.20;1.00
1355;DHT22;671;48.972;9.276;2023-02-02T15:57:33;8.20;1.00
1355;DHT22;671;48.972;9.276;2023-02-02T16:02:52;8.20;1.00
1355;DHT22;671;48.972;9.276;2023-02-02T16:05:42;8.20;1.00
1355;DHT22;671;48.972;9.276;2023-02-02T16:08:17;8.20;1.00
1355;DHT22;671;48.972;9.276;2023-02-02T16:10:45;8.20;1.00
1355;DHT22;671;48.972;9.276;2023-02-02T16:13:24;8.10;1.00
1355;DHT22;671;48.972;9.276;2023-02-02T16:16:04;8.10;1.00
1355;DHT22;671;48.972;9.276;2023-02-02T16:18:33;8.10;1.00
1355;DHT22;671;48.972;9.276;2023-02-02T16:21:04;8.10;1.00
1355;DHT22;671;48.972;9.276;2023-02-02T16:23:36;8.10;1.00
1355;DHT22;671;48.972;9.276;2023-02-02T16:26:05;8.10;1.00
1355;DHT22;671;48.972;9.276;2023-02-02T16:28:32;8.10;1.00
1355;DHT22;671;48.972;9.276;2023-02-02T16:31:00;8.10;1.00
1355;DHT22;671;48.972;9.276;2023-02-02T16:35:58;8.10;1.00
1355;DHT22;671;48.972;9.276;2023-02-02T16:38:35;8.10;1.00
1355;DHT22;671;48.972;9.276;2023-02-02T16:41:09;8.10;1.00
1355;DHT22;671;48.972;9.276;2023-02-02T16:43:40;8.10;1.00
1355;DHT22;671;48.972;9.276;2023-02-02T16:46:08;8.10;1.00
1355;DHT22;671;48.972;9.276;2023-02-02T16:48:40;8.00;1.00
1355;DHT22;671;48.972;9.276;2023-02-02T16:56:34;8.10;1.00
1355;DHT22;671;48.972;9.276;2023-02-02T16:59:04;8.10;1.00
1355;DHT22;671;48.972;9.276;2023-02-02T17:01:41;8.10;1.00
1355;DHT22;671;48.972;9.276;2023-02-02T17:04:24;8.10;1.00
1355;DHT22;671;48.972;9.276;2023-02-02T17:06:52;8.10;1.00
1355;DHT22;671;48.972;9.276;2023-02-02T17:14:55;8.00;1.00
1355;DHT22;671;48.972;9.276;2023-02-02T17:17:25;8.00;1.00
1355;DHT22;671;48.972;9.276;2023-02-02T17:19:52;8.00;1.00
1355;DHT22;671;48.972;9.276;2023-02-02T17:22:21;8.00;1.00
1355;DHT22;671;48.972;9.276;2023-02-02T17:24:50;8.00;1.00
1355;DHT22;671;48.972;9.276;2023-02-02T17:29:51;8.00;91.50
1355;DHT22;671;48.972;9.276;2023-02-02T17:32:18;8.00;94.90
1355;DHT22;671;48.972;9.276;2023-02-02T17:34:44;7.90;99.90
1355;DHT22;671;48.972;9.276;2023-02-02T17:37:11;7.90;99.90
1355;DHT22;671;48.972;9.276;2023-02-02T17:39:37;7.90;99.90
1355;DHT22;671;48.972;9.276;2023-02-02T17:42:04;7.90;99.90
1355;DHT22;671;48.972;9.276;2023-02-02T17:44:31;7.80;99.90
1355;DHT22;671;48.972;9.276;2023-02-02T17:46:59;7.80;1.00
1355;DHT22;671;48.972;9.276;2023-02-02T17:49:25;7.80;1.00
1355;DHT22;671;48.972;9.276;2023-02-02T17:51:52;7.70;1.00
1355;DHT22;671;48.972;9.276;2023-02-02T17:54:18;7.70;1.00
1355;DHT22;671;48.972;9.276;2023-02-02T17:56:45;7.70;1.00
1355;DHT22;671;48.972;9.276;2023-02-02T17:59:12;7.70;1.00
1355;DHT22;671;48.972;9.276;2023-02-02T18:01:38;7.60;1.00
1355;DHT22;671;48.972;9.276;2023-02-02T18:04:08;7.70;1.00
1355;DHT22;671;48.972;9.276;2023-02-02T18:06:36;7.70;1.00
1355;DHT22;671;48.972;9.276;2023-02-02T18:09:03;7.70;1.00
1355;DHT22;671;48.972;9.276;2023-02-02T18:11:30;7.60;1.00
1355;DHT22;671;48.972;9.276;2023-02-02T18:13:56;7.60;1.00
1355;DHT22;671;48.972;9.276;2023-02-02T18:16:22;7.70;1.00
1355;DHT22;671;48.972;9.276;2023-02-02T18:18:49;7.60;1.00
1355;DHT22;671;48.972;9.276;2023-02-02T18:21:15;7.60;1.00
1355;DHT22;671;48.972;9.276;2023-02-02T18:23:42;7.60;1.00
1355;DHT22;671;48.972;9.276;2023-02-02T18:26:13;7.60;1.00
1355;DHT22;671;48.972;9.276;2023-02-02T18:28:40;7.70;1.00
1355;DHT22;671;48.972;9.276;2023-02-02T18:31:08;7.70;1.00
1355;DHT22;671;48.972;9.276;2023-02-02T18:33:35;7.70;1.00
1355;DHT22;671;48.972;9.276;2023-02-02T18:36:06;7.70;99.90
1355;DHT22;671;48.972;9.276;2023-02-02T18:38:33;7.70;99.90
1355;DHT22;671;48.972;9.276;2023-02-02T18:41:00;7.70;1.00
1355;DHT22;671;48.972;9.276;2023-02-02T18:43:27;7.70;1.00
1355;DHT22;671;48.972;9.276;2023-02-02T18:46:01;7.60;1.00
1355;DHT22;671;48.972;9.276;2023-02-02T18:48:28;7.70;1.00
1355;DHT22;671;48.972;9.276;2023-02-02T18:50:54;7.70;1.00
1355;DHT22;671;48.972;9.276;2023-02-02T18:53:21;7.60;1.00
1355;DHT22;671;48.972;9.276;2023-02-02T18:55:47;7.70;1.00
1355;DHT22;671;48.972;9.276;2023-02-02T18:58:14;7.70;1.00
1355;DHT22;671;48.972;9.276;2023-02-02T19:00:41;7.70;1.00
1355;DHT22;671;48.972;9.276;2023-02-02T19:03:07;7.70;1.00
1355;DHT22;671;48.972;9.276;2023-02-02T19:05:34;7.70;1.00
1355;DHT22;671;48.972;9.276;2023-02-02T19:08:19;7.70;1.00
1355;DHT22;671;48.972;9.276;2023-02-02T19:10:46;7.70;1.00
1355;DHT22;671;48.972;9.276;2023-02-02T19:13:17;7.70;1.00
1355;DHT22;671;48.972;9.276;2023-02-02T19:15:46;7.70;1.00
1355;DHT22;671;48.972;9.276;2023-02-02T19:18:15;7.70;99.90
1355;DHT22;671;48.972;9.276;2023-02-02T19:20:43;7.70;99.90
1355;DHT22;671;48.972;9.276;2023-02-02T19:23:12;7.70;99.90
1355;DHT22;671;48.972;9.276;2023-02-02T19:25:40;7.70;99.90
1355;DHT22;671;48.972;9.276;2023-02-02T19:28:25;7.70;99.90
1355;DHT22;671;48.972;9.276;2023-02-02T19:30:58;7.80;99.90
1355;DHT22;671;48.972;9.276;2023-02-02T19:33:49;7.70;99.90
1355;DHT22;671;48.972;9.276;2023-02-02T19:36:19;7.80;99.90
1355;DHT22;671;48.972;9.276;2023-02-02T19:38:47;7.80;99.90
1355;DHT22;671;48.972;9.276;2023-02-02T19:41:22;7.80;99.90
1355;DHT22;671;48.972;9.276;2023-02-02T19:44:00;7.80;99.90
1355;DHT22;671;48.972;9.276;2023-02-02T19:46:42;7.80;99.90
1355;DHT22;671;48.972;9.276;2023-02-02T19:51:50;7.80;94.40
1355;DHT22;671;48.972;9.276;2023-02-02T19:54:36;7.80;95.50
1355;DHT22;671;48.972;9.276;2023-02-02T19:59:38;7.90;34.50
1355;DHT22;671;48.972;9.276;2023-02-02T20:04:45;7.80;1.00
1355;DHT22;671;48.972;9.276;2023-02-02T20:07:13;7.80;1.00
1355;DHT22;671;48.972;9.276;2023-02-02T20:09:40;7.80;1.00
1355;DHT22;671;48.972;9.276;2023-02-02T20:12:20;7.80;1.00
1355;DHT22;671;48.972;9.276;2023-02-02T20:14:49;7.90;1.00
1355;DHT22;671;48.972;9.276;2023-02-02T20:17:25;7.90;1.00
1355;DHT22;671;48.972;9.276;2023-02-02T20:19:54;7.90;1.00
1355;DHT22;671;48.972;9.276;2023-02-02T20:22:26;7.80;1.00
1355;DHT22;671;48.972;9.276;2023-02-02T20:24:55;7.80;1.00
1355;DHT22;671;48.972;9.276;2023-02-02T20:27:25;7.80;14.20
1355;DHT22;671;48.972;9.276;2023-02-02T20:29:53;7.80;1.00
1355;DHT22;671;48.972;9.276;2023-02-02T20:32:29;7.70;1.00
1355;DHT22;671;48.972;9.276;2023-02-02T20:35:23;7.80;1.00